sensor_id;sensor_type;location;lat;lon;timestamp;P1;durP1;ratioP1;P2;durP2;ratioP2
77280;SDS011;66339;47.262;17.144;2022-12-24T00:00:19;11.43;;;7.62;;
77280;SDS011;66339;47.262;17.144;2022-12-24T00:02:52;11.50;;;7.50;;
77280;SDS011;66339;47.262;17.144;2022-12-24T00:05:37;10.10;;;6.78;;
77280;SDS011;66339;47.262;17.144;2022-12-24T00:08:13;8.82;;;6.60;;
77280;SDS011;66339;47.262;17.144;2022-12-24T00:10:47;9.77;;;6.97;;
77280;SDS011;66339;47.262;17.144;2022-12-24T00:13:18;8.43;;;6.47;;
77280;SDS011;66339;47.262;17.144;2022-12-24T00:15:58;10.27;;;7.15;;
77280;SDS011;66339;47.262;17.144;2022-12-24T00:18:26;10.05;;;6.85;;
77280;SDS011;66339;47.262;17.144;2022-12-24T00:20:56;8.55;;;6.85;;
77280;SDS011;66339;47.262;17.144;2022-12-24T00:26:02;7.93;;;5.95;;
77280;SDS011;66339;47.262;17.144;2022-12-24T00:28:36;11.90;;;7.00;;
77280;SDS011;66339;47.262;17.144;2022-12-24T00:31:09;9.70;;;6.12;;
77280;SDS011;66339;47.262;17.144;2022-12-24T00:33:44;12.93;;;6.65;;
77280;SDS011;66339;47.262;17.144;2022-12-24T00:36:18;9.93;;;6.82;;
77280;SDS011;66339;47.262;17.144;2022-12-24T00:38:51;9.15;;;6.80;;
77280;SDS011;66339;47.262;17.144;2022-12-24T00:41:24;10.27;;;6.45;;
77280;SDS011;66339;47.262;17.144;2022-12-24T00:46:29;10.27;;;6.28;;
77280;SDS011;66339;47.262;17.144;2022-12-24T00:49:02;9.57;;;6.78;;
77280;SDS011;66339;47.262;17.144;2022-12-24T00:51:33;9.68;;;6.35;;
77280;SDS011;66339;47.262;17.144;2022-12-24T00:54:12;8.57;;;6.18;;
77280;SDS011;66339;47.262;17.144;2022-12-24T00:56:40;8.80;;;6.32;;
77280;SDS011;66339;47.262;17.144;2022-12-24T00:59:09;9.07;;;5.87;;
77280;SDS011;66339;47.262;17.144;2022-12-24T01:01:36;8.57;;;5.97;;
77280;SDS011;66339;47.262;17.144;2022-12-24T01:04:07;8.93;;;6.30;;
77280;SDS011;66339;47.262;17.144;2022-12-24T01:06:40;8.10;;;6.25;;
77280;SDS011;66339;47.262;17.144;2022-12-24T01:09:08;8.77;;;6.03;;
77280;SDS011;66339;47.262;17.144;2022-12-24T01:11:44;9.20;;;5.47;;
77280;SDS011;66339;47.262;17.144;2022-12-24T01:14:14;8.68;;;5.72;;
77280;SDS011;66339;47.262;17.144;2022-12-24T01:16:48;8.90;;;5.95;;
77280;SDS011;66339;47.262;17.144;2022-12-24T01:19:21;8.02;;;5.82;;
77280;SDS011;66339;47.262;17.144;2022-12-24T01:21:51;9.52;;;5.72;;
77280;SDS011;66339;47.262;17.144;2022-12-24T01:24:21;7.65;;;5.60;;
77280;SDS011;66339;47.262;17.144;2022-12-24T01:26:48;8.32;;;5.65;;
77280;SDS011;66339;47.262;17.144;2022-12-24T01:29:19;8.27;;;5.95;;
77280;SDS011;66339;47.262;17.144;2022-12-24T01:31:53;7.95;;;5.75;;
77280;SDS011;66339;47.262;17.144;2022-12-24T01:34:28;8.27;;;5.40;;
77280;SDS011;66339;47.262;17.144;2022-12-24T01:37:01;8.00;;;5.80;;
77280;SDS011;66339;47.262;17.144;2022-12-24T01:39:28;9.25;;;5.50;;
77280;SDS011;66339;47.262;17.144;2022-12-24T01:41:55;9.95;;;5.95;;
77280;SDS011;66339;47.262;17.144;2022-12-24T01:44:27;7.72;;;5.50;;
77280;SDS011;66339;47.262;17.144;2022-12-24T01:47:10;8.38;;;5.50;;
77280;SDS011;66339;47.262;17.144;2022-12-24T01:49:47;6.37;;;5.03;;
77280;SDS011;66339;47.262;17.144;2022-12-24T01:52:41;9.18;;;5.50;;
77280;SDS011;66339;47.262;17.144;2022-12-24T01:57:44;7.32;;;5.18;;
77280;SDS011;66339;47.262;17.144;2022-12-24T02:00:20;7.97;;;5.25;;
77280;SDS011;66339;47.262;17.144;2022-12-24T02:02:56;7.65;;;5.30;;
77280;SDS011;66339;47.262;17.144;2022-12-24T02:05:29;7.30;;;5.45;;
77280;SDS011;66339;47.262;17.144;2022-12-24T02:08:20;7.57;;;5.53;;
77280;SDS011;66339;47.262;17.144;2022-12-24T02:10:51;7.43;;;5.55;;
77280;SDS011;66339;47.262;17.144;2022-12-24T02:13:21;7.15;;;5.20;;
77280;SDS011;66339;47.262;17.144;2022-12-24T02:15:55;7.70;;;5.03;;
77280;SDS011;66339;47.262;17.144;2022-12-24T02:18:33;7.57;;;5.20;;
77280;SDS011;66339;47.262;17.144;2022-12-24T02:27:11;8.95;;;5.00;;
77280;SDS011;66339;47.262;17.144;2022-12-24T02:35:18;6.15;;;4.78;;
77280;SDS011;66339;47.262;17.144;2022-12-24T02:38:02;7.25;;;4.80;;
77280;SDS011;66339;47.262;17.144;2022-12-24T02:40:38;7.75;;;5.05;;
77280;SDS011;66339;47.262;17.144;2022-12-24T02:43:15;6.87;;;4.85;;
77280;SDS011;66339;47.262;17.144;2022-12-24T02:45:58;7.22;;;4.90;;
77280;SDS011;66339;47.262;17.144;2022-12-24T02:48:34;5.62;;;4.03;;
77280;SDS011;66339;47.262;17.144;2022-12-24T02:51:10;7.10;;;5.15;;
77280;SDS011;66339;47.262;17.144;2022-12-24T02:53:38;6.78;;;4.87;;
77280;SDS011;66339;47.262;17.144;2022-12-24T03:04:58;6.75;;;4.70;;
77280;SDS011;66339;47.262;17.144;2022-12-24T03:07:44;5.78;;;4.20;;
77280;SDS011;66339;47.262;17.144;2022-12-24T03:10:28;6.28;;;4.62;;
77280;SDS011;66339;47.262;17.144;2022-12-24T03:13:12;6.60;;;4.68;;
77280;SDS011;66339;47.262;17.144;2022-12-24T03:15:47;5.65;;;4.32;;
77280;SDS011;66339;47.262;17.144;2022-12-24T03:18:20;5.85;;;4.25;;
77280;SDS011;66339;47.262;17.144;2022-12-24T03:21:17;6.03;;;4.65;;
77280;SDS011;66339;47.262;17.144;2022-12-24T03:23:51;5.70;;;4.47;;
77280;SDS011;66339;47.262;17.144;2022-12-24T03:26:24;6.70;;;4.53;;
77280;SDS011;66339;47.262;17.144;2022-12-24T03:28:59;6.62;;;4.60;;
77280;SDS011;66339;47.262;17.144;2022-12-24T03:31:52;6.20;;;4.50;;
77280;SDS011;66339;47.262;17.144;2022-12-24T03:34:35;5.25;;;3.62;;
77280;SDS011;66339;47.262;17.144;2022-12-24T03:37:02;6.45;;;4.35;;
77280;SDS011;66339;47.262;17.144;2022-12-24T03:42:07;5.85;;;4.20;;
77280;SDS011;66339;47.262;17.144;2022-12-24T03:44:34;5.18;;;3.90;;
77280;SDS011;66339;47.262;17.144;2022-12-24T03:47:04;6.15;;;4.28;;
77280;SDS011;66339;47.262;17.144;2022-12-24T03:49:34;6.00;;;4.32;;
77280;SDS011;66339;47.262;17.144;2022-12-24T03:52:10;7.25;;;4.20;;
77280;SDS011;66339;47.262;17.144;2022-12-24T03:54:43;6.05;;;4.18;;
77280;SDS011;66339;47.262;17.144;2022-12-24T03:57:16;4.85;;;3.70;;
77280;SDS011;66339;47.262;17.144;2022-12-24T03:59:47;5.43;;;3.83;;
77280;SDS011;66339;47.262;17.144;2022-12-24T04:02:20;5.20;;;3.80;;
77280;SDS011;66339;47.262;17.144;2022-12-24T04:04:53;5.55;;;4.22;;
77280;SDS011;66339;47.262;17.144;2022-12-24T04:07:21;4.53;;;3.75;;
77280;SDS011;66339;47.262;17.144;2022-12-24T04:09:54;6.20;;;4.43;;
77280;SDS011;66339;47.262;17.144;2022-12-24T04:12:30;6.28;;;3.75;;
77280;SDS011;66339;47.262;17.144;2022-12-24T04:15:00;6.03;;;4.03;;
77280;SDS011;66339;47.262;17.144;2022-12-24T04:17:30;4.97;;;3.60;;
77280;SDS011;66339;47.262;17.144;2022-12-24T04:20:02;5.18;;;3.67;;
77280;SDS011;66339;47.262;17.144;2022-12-24T04:22:35;5.68;;;4.12;;
77280;SDS011;66339;47.262;17.144;2022-12-24T04:25:10;4.50;;;3.78;;
77280;SDS011;66339;47.262;17.144;2022-12-24T04:27:45;4.65;;;3.65;;
77280;SDS011;66339;47.262;17.144;2022-12-24T04:30:14;5.18;;;3.80;;
77280;SDS011;66339;47.262;17.144;2022-12-24T04:32:44;4.87;;;3.72;;
77280;SDS011;66339;47.262;17.144;2022-12-24T04:35:14;4.15;;;3.45;;
77280;SDS011;66339;47.262;17.144;2022-12-24T04:37:47;5.03;;;3.95;;
77280;SDS011;66339;47.262;17.144;2022-12-24T04:40:17;5.70;;;3.87;;
77280;SDS011;66339;47.262;17.144;2022-12-24T04:42:58;5.93;;;4.07;;
77280;SDS011;66339;47.262;17.144;2022-12-24T04:45:31;5.43;;;4.05;;
77280;SDS011;66339;47.262;17.144;2022-12-24T04:48:01;6.32;;;3.78;;
77280;SDS011;66339;47.262;17.144;2022-12-24T04:50:33;6.22;;;4.10;;
77280;SDS011;66339;47.262;17.144;2022-12-24T04:53:06;5.25;;;3.58;;
77280;SDS011;66339;47.262;17.144;2022-12-24T04:55:45;5.03;;;3.70;;
77280;SDS011;66339;47.262;17.144;2022-12-24T04:58:24;4.85;;;3.50;;
77280;SDS011;66339;47.262;17.144;2022-12-24T05:01:01;6.05;;;3.87;;
77280;SDS011;66339;47.262;17.144;2022-12-24T05:03:39;5.60;;;3.97;;
77280;SDS011;66339;47.262;17.144;2022-12-24T05:06:14;5.28;;;3.58;;
77280;SDS011;66339;47.262;17.144;2022-12-24T05:08:46;5.47;;;3.60;;
77280;SDS011;66339;47.262;17.144;2022-12-24T05:11:16;4.68;;;3.62;;
77280;SDS011;66339;47.262;17.144;2022-12-24T05:13:46;5.30;;;3.75;;
77280;SDS011;66339;47.262;17.144;2022-12-24T05:16:17;4.57;;;3.58;;
77280;SDS011;66339;47.262;17.144;2022-12-24T05:18:48;5.55;;;3.87;;
77280;SDS011;66339;47.262;17.144;2022-12-24T05:21:22;5.47;;;3.67;;
77280;SDS011;66339;47.262;17.144;2022-12-24T05:23:59;5.12;;;3.70;;
77280;SDS011;66339;47.262;17.144;2022-12-24T05:26:32;5.28;;;3.65;;
77280;SDS011;66339;47.262;17.144;2022-12-24T05:29:08;4.93;;;3.53;;
77280;SDS011;66339;47.262;17.144;2022-12-24T05:31:38;5.45;;;3.62;;
77280;SDS011;66339;47.262;17.144;2022-12-24T05:34:11;5.22;;;3.78;;
77280;SDS011;66339;47.262;17.144;2022-12-24T05:36:44;5.25;;;3.85;;
77280;SDS011;66339;47.262;17.144;2022-12-24T05:39:15;5.03;;;3.65;;
77280;SDS011;66339;47.262;17.144;2022-12-24T05:41:49;5.00;;;3.55;;
77280;SDS011;66339;47.262;17.144;2022-12-24T05:44:19;5.25;;;3.78;;
77280;SDS011;66339;47.262;17.144;2022-12-24T05:46:50;5.28;;;3.80;;
77280;SDS011;66339;47.262;17.144;2022-12-24T05:49:21;5.10;;;3.35;;
77280;SDS011;66339;47.262;17.144;2022-12-24T05:51:54;4.78;;;3.30;;
77280;SDS011;66339;47.262;17.144;2022-12-24T05:54:27;5.47;;;3.35;;
77280;SDS011;66339;47.262;17.144;2022-12-24T05:56:57;5.10;;;3.55;;
77280;SDS011;66339;47.262;17.144;2022-12-24T05:59:33;5.37;;;3.70;;
77280;SDS011;66339;47.262;17.144;2022-12-24T06:02:04;6.32;;;3.90;;
77280;SDS011;66339;47.262;17.144;2022-12-24T06:04:31;8.15;;;3.47;;
77280;SDS011;66339;47.262;17.144;2022-12-24T06:06:58;5.03;;;3.40;;
77280;SDS011;66339;47.262;17.144;2022-12-24T06:09:31;4.43;;;3.47;;
77280;SDS011;66339;47.262;17.144;2022-12-24T06:12:04;4.60;;;3.22;;
77280;SDS011;66339;47.262;17.144;2022-12-24T06:14:40;6.62;;;3.70;;
77280;SDS011;66339;47.262;17.144;2022-12-24T06:17:14;9.73;;;3.47;;
77280;SDS011;66339;47.262;17.144;2022-12-24T06:19:44;6.10;;;3.47;;
77280;SDS011;66339;47.262;17.144;2022-12-24T06:22:11;5.10;;;3.25;;
77280;SDS011;66339;47.262;17.144;2022-12-24T06:24:41;4.20;;;3.17;;
77280;SDS011;66339;47.262;17.144;2022-12-24T06:27:17;6.22;;;3.90;;
77280;SDS011;66339;47.262;17.144;2022-12-24T06:29:46;4.90;;;3.33;;
77280;SDS011;66339;47.262;17.144;2022-12-24T06:32:22;5.65;;;3.85;;
77280;SDS011;66339;47.262;17.144;2022-12-24T06:34:55;6.43;;;3.83;;
77280;SDS011;66339;47.262;17.144;2022-12-24T06:37:22;4.32;;;3.50;;
77280;SDS011;66339;47.262;17.144;2022-12-24T06:39:49;4.70;;;3.60;;
77280;SDS011;66339;47.262;17.144;2022-12-24T06:42:16;7.70;;;3.67;;
77280;SDS011;66339;47.262;17.144;2022-12-24T06:44:52;9.38;;;3.53;;
77280;SDS011;66339;47.262;17.144;2022-12-24T06:47:30;7.07;;;3.95;;
77280;SDS011;66339;47.262;17.144;2022-12-24T06:50:05;16.17;;;3.60;;
77280;SDS011;66339;47.262;17.144;2022-12-24T06:52:48;5.90;;;3.33;;
77280;SDS011;66339;47.262;17.144;2022-12-24T06:55:15;8.50;;;3.47;;
77280;SDS011;66339;47.262;17.144;2022-12-24T06:57:46;5.62;;;3.60;;
77280;SDS011;66339;47.262;17.144;2022-12-24T07:00:29;7.32;;;3.67;;
77280;SDS011;66339;47.262;17.144;2022-12-24T07:03:02;8.23;;;3.60;;
77280;SDS011;66339;47.262;17.144;2022-12-24T07:05:33;6.80;;;3.47;;
77280;SDS011;66339;47.262;17.144;2022-12-24T07:08:04;6.47;;;3.70;;
77280;SDS011;66339;47.262;17.144;2022-12-24T07:10:31;8.20;;;4.03;;
77280;SDS011;66339;47.262;17.144;2022-12-24T07:13:05;6.20;;;3.80;;
77280;SDS011;66339;47.262;17.144;2022-12-24T07:15:36;10.55;;;3.90;;
77280;SDS011;66339;47.262;17.144;2022-12-24T07:18:04;8.98;;;3.53;;
77280;SDS011;66339;47.262;17.144;2022-12-24T07:20:35;6.70;;;3.65;;
77280;SDS011;66339;47.262;17.144;2022-12-24T07:23:09;9.38;;;3.85;;
77280;SDS011;66339;47.262;17.144;2022-12-24T07:25:40;10.48;;;3.83;;
77280;SDS011;66339;47.262;17.144;2022-12-24T07:28:19;12.45;;;4.10;;
77280;SDS011;66339;47.262;17.144;2022-12-24T07:30:53;12.77;;;4.00;;
77280;SDS011;66339;47.262;17.144;2022-12-24T07:33:25;9.40;;;3.85;;
77280;SDS011;66339;47.262;17.144;2022-12-24T07:35:59;6.43;;;3.35;;
77280;SDS011;66339;47.262;17.144;2022-12-24T07:38:33;7.57;;;3.65;;
77280;SDS011;66339;47.262;17.144;2022-12-24T07:41:03;15.98;;;3.42;;
77280;SDS011;66339;47.262;17.144;2022-12-24T07:43:33;6.70;;;3.30;;
77280;SDS011;66339;47.262;17.144;2022-12-24T07:46:01;7.60;;;3.85;;
77280;SDS011;66339;47.262;17.144;2022-12-24T07:48:37;7.87;;;3.33;;
77280;SDS011;66339;47.262;17.144;2022-12-24T07:51:12;5.85;;;3.53;;
77280;SDS011;66339;47.262;17.144;2022-12-24T07:53:46;7.30;;;3.50;;
77280;SDS011;66339;47.262;17.144;2022-12-24T07:56:19;5.75;;;3.58;;
77280;SDS011;66339;47.262;17.144;2022-12-24T07:58:52;5.55;;;3.50;;
77280;SDS011;66339;47.262;17.144;2022-12-24T08:01:21;7.93;;;3.80;;
77280;SDS011;66339;47.262;17.144;2022-12-24T08:03:52;6.00;;;3.47;;
77280;SDS011;66339;47.262;17.144;2022-12-24T08:06:25;7.97;;;3.80;;
77280;SDS011;66339;47.262;17.144;2022-12-24T08:08:55;10.25;;;3.95;;
77280;SDS011;66339;47.262;17.144;2022-12-24T08:11:28;8.60;;;3.65;;
77280;SDS011;66339;47.262;17.144;2022-12-24T08:14:02;7.43;;;4.15;;
77280;SDS011;66339;47.262;17.144;2022-12-24T08:16:32;8.38;;;3.75;;
77280;SDS011;66339;47.262;17.144;2022-12-24T08:19:08;12.68;;;4.22;;
77280;SDS011;66339;47.262;17.144;2022-12-24T08:21:39;7.25;;;3.85;;
77280;SDS011;66339;47.262;17.144;2022-12-24T08:24:08;8.38;;;3.55;;
77280;SDS011;66339;47.262;17.144;2022-12-24T08:26:42;9.60;;;3.83;;
77280;SDS011;66339;47.262;17.144;2022-12-24T08:29:21;15.88;;;4.40;;
77280;SDS011;66339;47.262;17.144;2022-12-24T08:31:54;13.62;;;3.85;;
77280;SDS011;66339;47.262;17.144;2022-12-24T08:34:22;18.02;;;4.45;;
77280;SDS011;66339;47.262;17.144;2022-12-24T08:36:52;16.70;;;4.15;;
77280;SDS011;66339;47.262;17.144;2022-12-24T08:39:22;20.35;;;6.45;;
77280;SDS011;66339;47.262;17.144;2022-12-24T08:41:56;23.98;;;6.68;;
77280;SDS011;66339;47.262;17.144;2022-12-24T08:44:31;22.30;;;7.75;;
77280;SDS011;66339;47.262;17.144;2022-12-24T08:47:02;24.15;;;8.60;;
77280;SDS011;66339;47.262;17.144;2022-12-24T08:49:40;28.85;;;7.95;;
77280;SDS011;66339;47.262;17.144;2022-12-24T08:52:10;25.95;;;8.40;;
77280;SDS011;66339;47.262;17.144;2022-12-24T08:54:42;26.00;;;9.85;;
77280;SDS011;66339;47.262;17.144;2022-12-24T08:57:14;21.50;;;10.95;;
77280;SDS011;66339;47.262;17.144;2022-12-24T08:59:49;24.17;;;10.32;;
77280;SDS011;66339;47.262;17.144;2022-12-24T09:02:26;27.33;;;9.85;;
77280;SDS011;66339;47.262;17.144;2022-12-24T09:04:59;35.83;;;10.00;;
77280;SDS011;66339;47.262;17.144;2022-12-24T09:07:27;19.92;;;8.65;;
77280;SDS011;66339;47.262;17.144;2022-12-24T09:10:00;27.98;;;8.13;;
77280;SDS011;66339;47.262;17.144;2022-12-24T09:12:33;23.33;;;8.35;;
77280;SDS011;66339;47.262;17.144;2022-12-24T09:15:07;19.17;;;8.48;;
77280;SDS011;66339;47.262;17.144;2022-12-24T09:17:37;22.05;;;8.50;;
77280;SDS011;66339;47.262;17.144;2022-12-24T09:20:13;17.12;;;8.25;;
77280;SDS011;66339;47.262;17.144;2022-12-24T09:22:49;20.80;;;8.15;;
77280;SDS011;66339;47.262;17.144;2022-12-24T09:25:16;17.55;;;7.93;;
77280;SDS011;66339;47.262;17.144;2022-12-24T09:27:49;19.58;;;7.65;;
77280;SDS011;66339;47.262;17.144;2022-12-24T09:30:22;17.95;;;7.68;;
77280;SDS011;66339;47.262;17.144;2022-12-24T09:32:52;13.90;;;7.40;;
77280;SDS011;66339;47.262;17.144;2022-12-24T09:35:26;14.13;;;6.80;;
77280;SDS011;66339;47.262;17.144;2022-12-24T09:37:59;13.93;;;6.87;;
77280;SDS011;66339;47.262;17.144;2022-12-24T09:40:32;15.57;;;6.82;;
77280;SDS011;66339;47.262;17.144;2022-12-24T09:43:17;19.02;;;7.35;;
77280;SDS011;66339;47.262;17.144;2022-12-24T09:46:34;16.15;;;7.25;;
77280;SDS011;66339;47.262;17.144;2022-12-24T09:48:42;14.25;;;6.97;;
77280;SDS011;66339;47.262;17.144;2022-12-24T09:51:54;15.75;;;6.65;;
77280;SDS011;66339;47.262;17.144;2022-12-24T09:54:27;13.80;;;7.05;;
77280;SDS011;66339;47.262;17.144;2022-12-24T09:57:07;13.62;;;6.65;;
77280;SDS011;66339;47.262;17.144;2022-12-24T09:59:53;14.23;;;6.60;;
77280;SDS011;66339;47.262;17.144;2022-12-24T10:02:28;18.55;;;7.47;;
77280;SDS011;66339;47.262;17.144;2022-12-24T10:05:00;13.90;;;7.00;;
77280;SDS011;66339;47.262;17.144;2022-12-24T10:15:40;13.33;;;6.33;;
77280;SDS011;66339;47.262;17.144;2022-12-24T10:21:42;19.92;;;8.27;;
77280;SDS011;66339;47.262;17.144;2022-12-24T10:27:20;22.70;;;8.88;;
77280;SDS011;66339;47.262;17.144;2022-12-24T10:29:50;15.93;;;7.62;;
77280;SDS011;66339;47.262;17.144;2022-12-24T10:32:28;15.55;;;7.90;;
77280;SDS011;66339;47.262;17.144;2022-12-24T10:35:03;20.08;;;7.97;;
77280;SDS011;66339;47.262;17.144;2022-12-24T10:37:45;21.80;;;7.60;;
77280;SDS011;66339;47.262;17.144;2022-12-24T10:40:21;13.70;;;7.60;;
77280;SDS011;66339;47.262;17.144;2022-12-24T10:43:21;13.35;;;7.35;;
77280;SDS011;66339;47.262;17.144;2022-12-24T10:45:56;15.10;;;7.57;;
77280;SDS011;66339;47.262;17.144;2022-12-24T10:48:49;17.20;;;7.07;;
77280;SDS011;66339;47.262;17.144;2022-12-24T10:54:34;13.68;;;7.65;;
77280;SDS011;66339;47.262;17.144;2022-12-24T10:56:56;16.58;;;7.40;;
77280;SDS011;66339;47.262;17.144;2022-12-24T10:59:29;16.30;;;7.62;;
77280;SDS011;66339;47.262;17.144;2022-12-24T11:02:24;13.27;;;7.43;;
77280;SDS011;66339;47.262;17.144;2022-12-24T11:05:01;13.50;;;7.47;;
77280;SDS011;66339;47.262;17.144;2022-12-24T11:07:58;12.55;;;7.50;;
77280;SDS011;66339;47.262;17.144;2022-12-24T11:10:34;12.10;;;7.35;;
77280;SDS011;66339;47.262;17.144;2022-12-24T11:13:17;12.57;;;7.78;;
77280;SDS011;66339;47.262;17.144;2022-12-24T11:18:55;12.40;;;7.53;;
77280;SDS011;66339;47.262;17.144;2022-12-24T11:21:36;14.13;;;8.00;;
77280;SDS011;66339;47.262;17.144;2022-12-24T11:24:18;12.60;;;7.35;;
77280;SDS011;66339;47.262;17.144;2022-12-24T11:33:13;13.65;;;7.45;;
77280;SDS011;66339;47.262;17.144;2022-12-24T11:35:38;11.45;;;6.68;;
77280;SDS011;66339;47.262;17.144;2022-12-24T11:38:10;14.20;;;7.35;;
77280;SDS011;66339;47.262;17.144;2022-12-24T11:40:46;13.32;;;7.53;;
77280;SDS011;66339;47.262;17.144;2022-12-24T11:43:46;11.50;;;7.20;;
77280;SDS011;66339;47.262;17.144;2022-12-24T11:49:09;12.45;;;7.85;;
77280;SDS011;66339;47.262;17.144;2022-12-24T11:51:57;13.80;;;8.00;;
77280;SDS011;66339;47.262;17.144;2022-12-24T11:57:52;16.60;;;7.80;;
77280;SDS011;66339;47.262;17.144;2022-12-24T12:00:26;13.30;;;7.62;;
77280;SDS011;66339;47.262;17.144;2022-12-24T12:03:03;12.23;;;7.28;;
77280;SDS011;66339;47.262;17.144;2022-12-24T12:05:40;12.13;;;7.43;;
77280;SDS011;66339;47.262;17.144;2022-12-24T12:08:14;10.38;;;6.97;;
77280;SDS011;66339;47.262;17.144;2022-12-24T12:10:50;10.98;;;7.30;;
77280;SDS011;66339;47.262;17.144;2022-12-24T12:13:27;11.50;;;7.15;;
77280;SDS011;66339;47.262;17.144;2022-12-24T12:18:50;12.60;;;6.97;;
77280;SDS011;66339;47.262;17.144;2022-12-24T12:21:24;11.73;;;7.70;;
77280;SDS011;66339;47.262;17.144;2022-12-24T12:24:00;12.95;;;7.03;;
77280;SDS011;66339;47.262;17.144;2022-12-24T12:26:41;11.23;;;6.85;;
77280;SDS011;66339;47.262;17.144;2022-12-24T12:29:30;10.90;;;6.65;;
77280;SDS011;66339;47.262;17.144;2022-12-24T12:32:03;11.80;;;7.15;;
77280;SDS011;66339;47.262;17.144;2022-12-24T12:34:40;11.82;;;7.18;;
77280;SDS011;66339;47.262;17.144;2022-12-24T12:37:17;10.68;;;7.45;;
77280;SDS011;66339;47.262;17.144;2022-12-24T12:39:51;11.80;;;7.15;;
77280;SDS011;66339;47.262;17.144;2022-12-24T12:42:34;10.68;;;6.70;;
77280;SDS011;66339;47.262;17.144;2022-12-24T12:53:36;11.50;;;6.72;;
77280;SDS011;66339;47.262;17.144;2022-12-24T12:56:29;10.43;;;6.85;;
77280;SDS011;66339;47.262;17.144;2022-12-24T12:59:11;11.52;;;7.18;;
77280;SDS011;66339;47.262;17.144;2022-12-24T13:01:48;10.88;;;7.07;;
77280;SDS011;66339;47.262;17.144;2022-12-24T13:04:48;9.75;;;6.30;;
77280;SDS011;66339;47.262;17.144;2022-12-24T13:10:44;10.13;;;6.65;;
77280;SDS011;66339;47.262;17.144;2022-12-24T13:13:47;9.25;;;6.68;;
77280;SDS011;66339;47.262;17.144;2022-12-24T13:22:28;11.75;;;7.12;;
77280;SDS011;66339;47.262;17.144;2022-12-24T13:24:58;11.50;;;7.25;;
77280;SDS011;66339;47.262;17.144;2022-12-24T13:27:29;10.77;;;6.65;;
77280;SDS011;66339;47.262;17.144;2022-12-24T13:33:01;11.27;;;6.78;;
77280;SDS011;66339;47.262;17.144;2022-12-24T13:40:54;9.98;;;6.75;;
77280;SDS011;66339;47.262;17.144;2022-12-24T13:49:29;10.30;;;6.53;;
77280;SDS011;66339;47.262;17.144;2022-12-24T13:52:20;11.50;;;6.80;;
77280;SDS011;66339;47.262;17.144;2022-12-24T13:54:59;10.95;;;6.85;;
77280;SDS011;66339;47.262;17.144;2022-12-24T13:57:42;11.20;;;7.35;;
77280;SDS011;66339;47.262;17.144;2022-12-24T14:00:43;10.65;;;7.28;;
77280;SDS011;66339;47.262;17.144;2022-12-24T14:03:35;10.63;;;6.62;;
77280;SDS011;66339;47.262;17.144;2022-12-24T14:09:13;9.15;;;6.75;;
77280;SDS011;66339;47.262;17.144;2022-12-24T14:14:42;10.63;;;7.05;;
77280;SDS011;66339;47.262;17.144;2022-12-24T14:19:40;11.95;;;7.10;;
77280;SDS011;66339;47.262;17.144;2022-12-24T14:22:28;10.57;;;7.10;;
77280;SDS011;66339;47.262;17.144;2022-12-24T14:25:08;9.93;;;6.97;;
77280;SDS011;66339;47.262;17.144;2022-12-24T14:27:47;9.73;;;6.45;;
77280;SDS011;66339;47.262;17.144;2022-12-24T14:30:23;11.27;;;6.93;;
77280;SDS011;66339;47.262;17.144;2022-12-24T14:32:57;11.02;;;7.28;;
77280;SDS011;66339;47.262;17.144;2022-12-24T14:38:05;11.18;;;6.78;;
77280;SDS011;66339;47.262;17.144;2022-12-24T14:40:53;10.48;;;6.43;;
77280;SDS011;66339;47.262;17.144;2022-12-24T14:46:59;9.15;;;6.45;;
77280;SDS011;66339;47.262;17.144;2022-12-24T14:55:47;9.45;;;6.22;;
77280;SDS011;66339;47.262;17.144;2022-12-24T15:00:44;10.07;;;6.75;;
77280;SDS011;66339;47.262;17.144;2022-12-24T15:03:20;8.90;;;6.35;;
77280;SDS011;66339;47.262;17.144;2022-12-24T15:05:53;8.25;;;6.22;;
77280;SDS011;66339;47.262;17.144;2022-12-24T15:08:32;9.90;;;6.57;;
77280;SDS011;66339;47.262;17.144;2022-12-24T15:11:13;10.02;;;6.60;;
77280;SDS011;66339;47.262;17.144;2022-12-24T15:13:51;9.43;;;6.18;;
77280;SDS011;66339;47.262;17.144;2022-12-24T15:16:28;10.68;;;6.65;;
77280;SDS011;66339;47.262;17.144;2022-12-24T15:19:18;8.90;;;6.25;;
77280;SDS011;66339;47.262;17.144;2022-12-24T15:21:59;9.32;;;6.78;;
77280;SDS011;66339;47.262;17.144;2022-12-24T15:24:29;10.25;;;6.65;;
77280;SDS011;66339;47.262;17.144;2022-12-24T15:27:14;10.48;;;6.55;;
77280;SDS011;66339;47.262;17.144;2022-12-24T15:29:49;8.68;;;6.43;;
77280;SDS011;66339;47.262;17.144;2022-12-24T15:32:19;9.77;;;6.60;;
77280;SDS011;66339;47.262;17.144;2022-12-24T15:34:50;11.02;;;6.53;;
77280;SDS011;66339;47.262;17.144;2022-12-24T15:37:23;8.95;;;6.47;;
77280;SDS011;66339;47.262;17.144;2022-12-24T15:42:49;10.23;;;7.03;;
77280;SDS011;66339;47.262;17.144;2022-12-24T15:45:24;10.82;;;6.85;;
77280;SDS011;66339;47.262;17.144;2022-12-24T15:48:09;10.73;;;7.03;;
77280;SDS011;66339;47.262;17.144;2022-12-24T15:50:46;11.55;;;7.45;;
77280;SDS011;66339;47.262;17.144;2022-12-24T15:53:25;12.00;;;7.62;;
77280;SDS011;66339;47.262;17.144;2022-12-24T15:56:07;12.10;;;7.70;;
77280;SDS011;66339;47.262;17.144;2022-12-24T15:58:39;11.73;;;7.90;;
77280;SDS011;66339;47.262;17.144;2022-12-24T16:06:23;11.45;;;7.40;;
77280;SDS011;66339;47.262;17.144;2022-12-24T16:08:52;11.73;;;7.57;;
77280;SDS011;66339;47.262;17.144;2022-12-24T16:11:38;11.00;;;7.82;;
77280;SDS011;66339;47.262;17.144;2022-12-24T16:16:40;12.18;;;7.90;;
77280;SDS011;66339;47.262;17.144;2022-12-24T16:19:45;11.98;;;7.55;;
77280;SDS011;66339;47.262;17.144;2022-12-24T16:22:09;11.63;;;7.68;;
77280;SDS011;66339;47.262;17.144;2022-12-24T16:24:46;11.55;;;7.55;;
77280;SDS011;66339;47.262;17.144;2022-12-24T16:27:19;11.77;;;7.70;;
77280;SDS011;66339;47.262;17.144;2022-12-24T16:29:48;11.80;;;7.93;;
77280;SDS011;66339;47.262;17.144;2022-12-24T16:32:50;13.02;;;8.15;;
77280;SDS011;66339;47.262;17.144;2022-12-24T16:35:19;12.88;;;7.70;;
77280;SDS011;66339;47.262;17.144;2022-12-24T16:37:58;13.15;;;7.97;;
77280;SDS011;66339;47.262;17.144;2022-12-24T16:40:31;12.90;;;8.63;;
77280;SDS011;66339;47.262;17.144;2022-12-24T16:43:01;11.52;;;7.72;;
77280;SDS011;66339;47.262;17.144;2022-12-24T16:45:34;13.75;;;8.35;;
77280;SDS011;66339;47.262;17.144;2022-12-24T16:48:12;12.60;;;8.43;;
77280;SDS011;66339;47.262;17.144;2022-12-24T16:50:47;12.85;;;8.15;;
77280;SDS011;66339;47.262;17.144;2022-12-24T16:53:16;12.75;;;8.27;;
77280;SDS011;66339;47.262;17.144;2022-12-24T16:55:49;12.75;;;8.20;;
77280;SDS011;66339;47.262;17.144;2022-12-24T16:58:19;13.02;;;8.82;;
77280;SDS011;66339;47.262;17.144;2022-12-24T17:00:47;13.10;;;8.32;;
77280;SDS011;66339;47.262;17.144;2022-12-24T17:03:17;13.62;;;8.48;;
77280;SDS011;66339;47.262;17.144;2022-12-24T17:05:45;14.30;;;8.35;;
77280;SDS011;66339;47.262;17.144;2022-12-24T17:08:12;12.68;;;8.45;;
77280;SDS011;66339;47.262;17.144;2022-12-24T17:10:48;13.55;;;8.45;;
77280;SDS011;66339;47.262;17.144;2022-12-24T17:13:19;12.65;;;8.48;;
77280;SDS011;66339;47.262;17.144;2022-12-24T17:15:46;11.68;;;8.75;;
77280;SDS011;66339;47.262;17.144;2022-12-24T17:18:16;13.90;;;8.25;;
77280;SDS011;66339;47.262;17.144;2022-12-24T17:20:55;13.60;;;9.07;;
77280;SDS011;66339;47.262;17.144;2022-12-24T17:23:26;12.25;;;8.65;;
77280;SDS011;66339;47.262;17.144;2022-12-24T17:28:41;11.77;;;8.45;;